Terminal Aerodrome Forecast
Issued by NWS Sioux Falls, SD

Home | Current Version | Previous Version | Graphics & Text | Print | Product List | Glossary Off
Versions: 1 2 3 4 5 6 7 8 9 10 11 12 13 14

000
FTUS43 KFSD 241720
TAFSUX
TAF
KSUX 241720Z 2418/2518 35021G31KT 2SM -SN BLSN BKN025
     FM242000 34022G30KT 5SM BLSN OVC060
     FM250000 34016G24KT P6SM SCT035 BKN100
     FM250500 33011KT P6SM FEW250
     FM251200 31009KT P6SM SCT150=

USA.gov is the U.S. government's official web portal to all federal, state and local government web resources and services.